createdAt,value
2022-10-04T09:12:57.777Z,98660.87
2022-10-04T09:15:46.399Z,98657.54
2022-10-04T09:18:45.093Z,98664.63
2022-10-04T09:21:27.988Z,98665.38
2022-10-04T09:24:21.633Z,98666.56
2022-10-04T09:27:06.361Z,98666.98
2022-10-04T09:36:20.748Z,98674.80
2022-10-04T09:39:36.605Z,98678.17
2022-10-04T09:42:37.033Z,98682.73
2022-10-04T09:45:28.351Z,98685.39
2022-10-04T09:48:24.601Z,98683.14
2022-10-04T09:51:22.711Z,98689.36
2022-10-04T09:54:04.982Z,98688.91
2022-10-04T09:57:00.735Z,98688.94
2022-10-04T09:59:58.298Z,98695.11
2022-10-04T10:03:04.873Z,98701.98
2022-10-04T10:05:56.341Z,98710.27
2022-10-04T10:08:35.367Z,98710.11
2022-10-04T10:11:34.124Z,98712.06
2022-10-04T10:19:37.567Z,98721.85
2022-10-04T10:22:30.655Z,98723.92
2022-10-04T10:25:12.915Z,98727.86
2022-10-04T10:28:03.475Z,98725.91
2022-10-04T10:30:50.298Z,98732.41
2022-10-04T10:33:38.816Z,98737.73
2022-10-04T10:36:35.556Z,98743.83
2022-10-04T10:39:37.688Z,98741.08
2022-10-04T10:42:30.789Z,98741.34
2022-10-04T10:45:19.295Z,98741.92
2022-10-04T10:47:59.288Z,98747.38
2022-10-04T10:51:02.798Z,98748.17
2022-10-04T10:54:15.513Z,98745.37
2022-10-04T10:56:53.016Z,98746.63
2022-10-04T10:59:49.975Z,98747.33
2022-10-04T11:02:50.830Z,98753.06
2022-10-04T11:05:39.408Z,98751.05
2022-10-04T11:22:45.456Z,98756.60
2022-10-04T11:26:03.173Z,98760.61
2022-10-04T11:28:43.444Z,98765.64
2022-10-04T11:31:28.124Z,98765.52
2022-10-04T11:34:28.608Z,98760.31
2022-10-04T11:37:13.903Z,98764.09
2022-10-04T11:40:12.369Z,98768.17
2022-10-04T11:43:05.948Z,98767.70
2022-10-04T11:46:12.004Z,98763.86
2022-10-04T11:48:58.990Z,98761.60
2022-10-04T11:52:02.562Z,98760.71
2022-10-04T11:55:13.015Z,98758.84
2022-10-04T11:57:52.761Z,98771.01
2022-10-04T12:00:29.398Z,98770.05
2022-10-04T12:03:38.661Z,98773.48
2022-10-04T12:06:31.522Z,98760.98
2022-10-04T12:09:17.444Z,98765.98
2022-10-04T12:12:38.682Z,98767.73
2022-10-04T12:15:44.416Z,98766.29
2022-10-04T12:19:07.244Z,98770.30
2022-10-04T12:21:59.278Z,98775.60
2022-10-04T12:25:19.695Z,98781.77
2022-10-04T12:28:12.925Z,98777.99
2022-10-04T12:31:02.473Z,98784.00
2022-10-04T12:33:43.547Z,98786.98
2022-10-04T12:36:41.104Z,98789.70
2022-10-04T12:39:45.761Z,98786.02
2022-10-04T12:42:32.716Z,98787.44
2022-10-04T12:45:21.493Z,98784.17
2022-10-04T12:48:05.380Z,98782.39
2022-10-04T12:50:54.677Z,98781.96
2022-10-04T12:53:35.622Z,98782.62
2022-10-04T12:56:18.454Z,98787.78
2022-10-04T12:59:05.710Z,98786.38
2022-10-04T13:01:49.436Z,98791.39
2022-10-04T13:04:33.132Z,98791.64
2022-10-04T13:07:29.291Z,98791.11
2022-10-04T13:10:30.682Z,98797.59
2022-10-04T13:13:36.282Z,98797.65
2022-10-04T13:19:22.811Z,98781.02
2022-10-04T13:22:43.972Z,98783.67
2022-10-04T13:25:34.225Z,98784.55
2022-10-04T13:28:21.689Z,98794.44
2022-10-04T13:31:01.718Z,98801.95
2022-10-04T13:33:43.570Z,98801.19
2022-10-04T13:36:26.958Z,98797.38
2022-10-04T13:39:26.181Z,98797.60
2022-10-04T13:42:41.767Z,98793.29
2022-10-04T13:45:26.073Z,98797.18
2022-10-04T13:48:18.173Z,98804.88
2022-10-04T13:51:26.633Z,98807.23
2022-10-04T13:54:29.284Z,98803.61
2022-10-04T13:57:19.595Z,98799.98
2022-10-04T14:00:03.888Z,98801.41
2022-10-04T14:03:18.696Z,98797.21
2022-10-04T14:06:25.370Z,98801.20
2022-10-04T14:09:37.039Z,98799.15
2022-10-04T14:12:33.977Z,98798.98
2022-10-04T14:15:59.889Z,98794.40
2022-10-04T14:19:07.079Z,98793.84
2022-10-04T14:22:12.827Z,98792.23
2022-10-04T14:25:21.370Z,98785.02
2022-10-04T14:28:27.938Z,98783.55
2022-10-04T14:31:21.239Z,98781.88
2022-10-04T14:34:23.947Z,98781.81
2022-10-04T14:37:24.413Z,98794.08
2022-10-04T14:40:16.269Z,98801.12
2022-10-04T14:43:06.276Z,98802.45
2022-10-04T14:45:53.368Z,98802.84
2022-10-04T14:48:45.474Z,98805.52
2022-10-04T14:51:26.649Z,98795.29
2022-10-04T14:54:05.723Z,98805.55
2022-10-04T14:56:59.295Z,98801.55
2022-10-04T14:59:53.722Z,98801.50
2022-10-04T15:03:08.317Z,98805.34
2022-10-04T15:05:59.971Z,98810.41
2022-10-04T15:09:02.219Z,98810.17
2022-10-04T15:15:21.469Z,98814.35
2022-10-04T15:18:08.465Z,98819.27
2022-10-04T15:20:53.204Z,98819.95
2022-10-04T15:23:37.960Z,98827.64
2022-10-04T15:26:46.893Z,98829.34
2022-10-04T15:29:26.601Z,98828.50
2022-10-04T15:32:16.003Z,98829.27
2022-10-04T15:34:59.403Z,98827.49
2022-10-04T15:37:45.761Z,98837.58
2022-10-04T15:40:30.316Z,98839.70
2022-10-04T15:43:19.360Z,98840.51
2022-10-04T15:46:26.297Z,98846.88
2022-10-04T15:49:30.883Z,98852.44
2022-10-04T15:52:17.213Z,98857.04
2022-10-04T15:55:18.318Z,98859.58
2022-10-04T15:58:16.059Z,98859.01
2022-10-04T16:01:17.486Z,98859.58
2022-10-04T16:04:14.054Z,98861.03
2022-10-04T16:06:51.139Z,98863.77
2022-10-04T16:09:37.555Z,98864.52
2022-10-04T16:12:23.483Z,98870.53
2022-10-04T16:15:02.058Z,98871.73
2022-10-04T16:17:50.460Z,98873.58
2022-10-04T16:21:02.133Z,98877.73
2022-10-04T16:23:36.449Z,98880.00
2022-10-04T16:26:15.531Z,98882.89
2022-10-04T16:29:18.431Z,98883.78
2022-10-04T16:32:03.258Z,98880.29
2022-10-04T16:34:48.224Z,98886.93
2022-10-04T16:37:29.739Z,98886.48
2022-10-04T16:40:20.145Z,98884.98
2022-10-04T16:42:59.616Z,98886.55
2022-10-04T16:46:04.814Z,98883.81
2022-10-04T16:48:47.587Z,98891.86
2022-10-04T16:51:41.259Z,98893.50
2022-10-04T16:54:35.758Z,98894.50
2022-10-04T16:57:19.781Z,98892.90
2022-10-04T16:59:55.739Z,98900.46
2022-10-04T17:02:51.941Z,98901.52
2022-10-04T17:05:39.094Z,98906.30
2022-10-04T17:08:27.798Z,98908.55
2022-10-04T17:11:18.185Z,98907.11
2022-10-04T17:13:58.097Z,98911.25
2022-10-04T17:16:39.144Z,98910.70
2022-10-04T17:19:45.603Z,98911.95
2022-10-04T17:22:36.319Z,98922.69
2022-10-04T17:25:24.131Z,98924.86
2022-10-04T17:28:01.849Z,98928.59
2022-10-04T17:30:48.607Z,98927.18
2022-10-04T17:33:36.696Z,98929.75
2022-10-04T17:36:39.570Z,98931.27
2022-10-04T17:39:30.106Z,98936.23
2022-10-04T17:42:14.490Z,98934.67
2022-10-04T17:45:00.795Z,98936.14
2022-10-04T17:47:57.673Z,98936.89
2022-10-04T17:50:53.391Z,98932.34
2022-10-04T17:53:47.211Z,98932.06
2022-10-04T17:56:32.466Z,98936.89
2022-10-04T17:59:14.043Z,98938.40
2022-10-04T18:01:52.192Z,98940.42
2022-10-04T18:04:30.741Z,98944.35
2022-10-04T18:07:18.458Z,98949.31
2022-10-04T18:09:53.687Z,98951.95
2022-10-04T18:12:35.399Z,98953.33
2022-10-04T18:15:18.355Z,98954.98
2022-10-04T18:17:51.889Z,98952.34
2022-10-04T18:20:30.629Z,98957.25
2022-10-04T18:23:15.931Z,98961.27
2022-10-04T18:25:49.052Z,98964.61
2022-10-04T18:28:24.426Z,98969.69
2022-10-04T18:31:00.525Z,98974.54
2022-10-04T18:33:50.194Z,98974.48
2022-10-04T18:36:24.772Z,98974.52
2022-10-04T18:39:20.648Z,98978.29
2022-10-04T18:42:51.214Z,98978.58
2022-10-04T18:46:00.501Z,98980.56
2022-10-04T18:49:23.173Z,98980.48
2022-10-04T18:52:07.750Z,98977.17
2022-10-04T18:54:50.627Z,98979.63
2022-10-04T18:57:33.292Z,98980.47
2022-10-04T19:00:26.992Z,98982.16
2022-10-04T19:03:09.818Z,98984.71
2022-10-04T19:05:52.275Z,98982.80
2022-10-04T19:08:36.980Z,98979.20
2022-10-04T19:11:20.367Z,98981.96
2022-10-04T19:14:02.734Z,98983.40
2022-10-04T19:16:51.396Z,98984.30
2022-10-04T19:19:43.331Z,98983.64
2022-10-04T19:22:29.054Z,98993.98
2022-10-04T19:25:19.013Z,99002.16
2022-10-04T19:27:58.591Z,99001.75
2022-10-04T19:30:48.355Z,99006.52
2022-10-04T19:33:46.738Z,99005.90
2022-10-04T19:36:45.975Z,99006.90
2022-10-04T19:39:39.364Z,99006.67
2022-10-04T19:42:15.494Z,99004.88
2022-10-04T19:45:08.316Z,99011.98
2022-10-04T19:47:48.963Z,99019.44
2022-10-04T19:50:25.793Z,99022.34
2022-10-04T19:53:04.266Z,99028.25
2022-10-04T19:55:45.328Z,99029.81
2022-10-04T19:58:30.271Z,99037.56
2022-10-04T20:01:23.225Z,99035.53
2022-10-04T20:04:08.068Z,99037.70
2022-10-04T20:06:48.990Z,99041.57
2022-10-04T20:09:33.147Z,99040.64
2022-10-04T20:12:06.487Z,99036.95
2022-10-04T20:14:50.663Z,99041.29
2022-10-04T20:17:36.031Z,99040.14
2022-10-04T20:20:09.083Z,99041.45
2022-10-04T20:23:00.615Z,99038.34
2022-10-04T20:26:02.970Z,99048.73
2022-10-04T20:28:43.896Z,99048.30
2022-10-04T20:31:56.989Z,99054.48
2022-10-04T20:34:49.388Z,99054.42
2022-10-04T20:37:22.743Z,99053.29
2022-10-04T20:40:00.711Z,99058.16
2022-10-04T20:42:35.279Z,99060.95
2022-10-04T20:45:27.839Z,99068.76
2022-10-04T20:48:01.505Z,99066.95
2022-10-04T20:50:43.324Z,99067.20
2022-10-04T20:53:20.909Z,99064.08
2022-10-04T20:56:11.914Z,99068.65
2022-10-04T20:58:44.227Z,99072.64
2022-10-04T21:01:44.113Z,99072.85
2022-10-04T21:04:26.517Z,99073.94
2022-10-04T21:07:00.368Z,99072.06
2022-10-04T21:09:36.479Z,99075.95
2022-10-04T21:12:28.067Z,99081.11
2022-10-04T21:15:19.436Z,99086.36
2022-10-04T21:18:07.695Z,99081.56
2022-10-04T21:20:48.124Z,99082.02
2022-10-04T21:23:30.276Z,99086.79
2022-10-04T21:26:23.130Z,99089.27
2022-10-04T21:28:58.068Z,99087.20
2022-10-04T21:31:30.670Z,99091.58
2022-10-04T21:34:02.918Z,99096.73
2022-10-04T21:36:35.514Z,99095.44
2022-10-04T21:39:07.742Z,99099.91
2022-10-04T21:41:39.983Z,99099.59
2022-10-04T21:44:12.465Z,99094.18
2022-10-04T21:46:44.793Z,99092.79
2022-10-04T21:49:17.140Z,99089.15
2022-10-04T21:51:52.264Z,99083.73
2022-10-04T21:54:24.320Z,99083.63
2022-10-04T21:56:57.577Z,99083.80
2022-10-04T21:59:30.227Z,99084.16
2022-10-04T22:02:02.557Z,99079.70
2022-10-04T22:04:38.157Z,99074.66
2022-10-04T22:07:10.918Z,99072.20
2022-10-04T22:09:42.987Z,99071.98
2022-10-04T22:12:14.935Z,99066.91
2022-10-04T22:14:46.967Z,99073.33
2022-10-04T22:17:19.035Z,99078.13
2022-10-04T22:19:52.999Z,99074.75
2022-10-04T22:22:25.904Z,99067.40
2022-10-04T22:24:57.964Z,99068.23
2022-10-04T22:27:31.615Z,99075.02
2022-10-04T22:30:04.532Z,99078.46
2022-10-04T22:32:36.578Z,99079.27
2022-10-04T22:35:16.077Z,99085.70
2022-10-04T22:37:50.592Z,99085.02
2022-10-04T22:40:28.253Z,99085.05
2022-10-04T22:43:02.351Z,99084.58
2022-10-04T22:45:34.570Z,99088.48
2022-10-04T22:48:15.542Z,99085.52
2022-10-04T22:50:47.734Z,99090.55
2022-10-04T22:53:25.822Z,99094.50
2022-10-04T22:55:58.084Z,99102.15
2022-10-04T22:58:30.216Z,99109.08
2022-10-04T23:01:03.055Z,99104.08
2022-10-04T23:03:35.605Z,99097.13
2022-10-04T23:06:12.726Z,99103.08
2022-10-04T23:08:45.614Z,99103.80
2022-10-04T23:11:17.822Z,99108.84
2022-10-04T23:13:50.150Z,99109.98
2022-10-04T23:16:24.209Z,99114.79
2022-10-04T23:19:03.553Z,99116.42
2022-10-04T23:21:38.743Z,99116.95
2022-10-04T23:24:17.951Z,99117.35
2022-10-04T23:26:56.001Z,99122.08
2022-10-04T23:29:31.707Z,99120.59
2022-10-04T23:32:10.660Z,99120.52
2022-10-04T23:34:46.626Z,99117.95
2022-10-04T23:37:23.122Z,99117.77
2022-10-04T23:39:55.513Z,99117.29
2022-10-04T23:42:31.928Z,99111.59
2022-10-04T23:45:12.729Z,99117.52
2022-10-04T23:47:45.559Z,99118.31
2022-10-04T23:50:30.303Z,99116.63
2022-10-04T23:53:06.494Z,99114.72
2022-10-04T23:55:42.754Z,99108.38
2022-10-04T23:58:18.824Z,99106.69
